createdAt,value
2018-08-30T00:00:25.761Z,21.89
2018-08-30T00:01:25.217Z,21.91
2018-08-30T00:02:25.469Z,21.8
2018-08-30T00:03:25.485Z,21.82
2018-08-30T00:04:25.506Z,21.69
2018-08-30T00:05:25.486Z,21.58
2018-08-30T00:06:25.506Z,21.6
2018-08-30T00:07:25.764Z,21.55
2018-08-30T00:08:25.504Z,21.51
2018-08-30T00:09:25.479Z,21.46
2018-08-30T00:10:25.732Z,21.43
2018-08-30T00:11:25.222Z,21.35
2018-08-30T00:12:25.749Z,21.3
2018-08-30T00:13:25.505Z,21.35
2018-08-30T00:14:25.767Z,21.29
2018-08-30T00:15:25.301Z,21.2
2018-08-30T00:16:25.233Z,21.12
2018-08-30T00:17:25.236Z,21.12
2018-08-30T00:18:25.492Z,21.11
2018-08-30T00:19:25.488Z,21.05
2018-08-30T00:20:25.834Z,21.09
2018-08-30T00:21:25.260Z,21
2018-08-30T00:22:25.791Z,21
2018-08-30T00:23:25.520Z,20.99
2018-08-30T00:24:25.772Z,20.99
2018-08-30T00:25:25.842Z,21.02
2018-08-30T00:26:25.538Z,21
2018-08-30T00:27:25.527Z,20.95
2018-08-30T00:28:25.800Z,20.88
2018-08-30T00:29:25.542Z,20.97
2018-08-30T00:30:25.586Z,20.9
2018-08-30T00:31:25.260Z,20.93
2018-08-30T00:32:25.804Z,20.95
2018-08-30T00:33:25.781Z,21
2018-08-30T00:34:25.258Z,21.02
2018-08-30T00:35:25.546Z,20.99
2018-08-30T00:36:25.780Z,21.05
2018-08-30T00:37:25.801Z,21
2018-08-30T00:38:25.266Z,21
2018-08-30T00:39:25.279Z,21.02
2018-08-30T00:40:25.524Z,21.02
2018-08-30T00:41:26.127Z,21.02
2018-08-30T00:42:25.804Z,21.02
2018-08-30T00:43:25.802Z,21.05
2018-08-30T00:44:25.553Z,21.02
2018-08-30T00:45:25.673Z,20.97
2018-08-30T00:46:25.800Z,21.02
2018-08-30T00:47:25.561Z,21.02
2018-08-30T00:48:25.567Z,21
2018-08-30T00:49:25.309Z,21.03
2018-08-30T00:50:25.430Z,20.92
2018-08-30T00:51:25.289Z,20.95
2018-08-30T00:52:25.316Z,20.97
2018-08-30T00:53:25.812Z,20.93
2018-08-30T00:54:25.550Z,20.96
2018-08-30T00:55:25.323Z,20.99
2018-08-30T00:56:25.816Z,20.93
2018-08-30T00:57:25.298Z,20.97
2018-08-30T00:58:25.563Z,20.9
2018-08-30T00:59:25.824Z,20.96
2018-08-30T01:00:25.824Z,20.92
2018-08-30T01:01:25.601Z,20.9
2018-08-30T01:02:25.821Z,20.9
2018-08-30T01:03:25.568Z,20.85
2018-08-30T01:04:25.827Z,20.87
2018-08-30T01:05:25.639Z,20.87
2018-08-30T01:06:25.837Z,20.88
2018-08-30T01:07:25.322Z,20.84
2018-08-30T01:08:25.906Z,20.93
2018-08-30T01:09:25.828Z,20.88
2018-08-30T01:10:25.894Z,20.88
2018-08-30T01:11:25.859Z,20.81
2018-08-30T01:12:25.835Z,20.81
2018-08-30T01:13:25.834Z,20.88
2018-08-30T01:14:25.606Z,20.7
2018-08-30T01:15:25.413Z,20.77
2018-08-30T01:16:25.843Z,20.74
2018-08-30T01:17:25.331Z,20.78
2018-08-30T01:18:25.603Z,20.72
2018-08-30T01:19:25.733Z,20.78
2018-08-30T01:20:25.851Z,20.7
2018-08-30T01:21:25.596Z,20.7
2018-08-30T01:22:25.604Z,20.63
2018-08-30T01:23:25.667Z,20.7
2018-08-30T01:24:25.612Z,20.7
2018-08-30T01:25:25.619Z,20.6
2018-08-30T01:26:25.346Z,20.65
2018-08-30T01:27:25.595Z,20.69
2018-08-30T01:28:25.851Z,20.74
2018-08-30T01:29:25.611Z,20.77
2018-08-30T01:30:25.913Z,20.7
2018-08-30T01:31:25.611Z,20.63
2018-08-30T01:32:25.896Z,20.67
2018-08-30T01:33:25.868Z,20.66
2018-08-30T01:34:25.606Z,20.63
2018-08-30T01:35:25.649Z,20.67
2018-08-30T01:36:25.629Z,20.62
2018-08-30T01:37:25.366Z,20.66
2018-08-30T01:38:25.621Z,20.56
2018-08-30T01:39:25.620Z,20.58
2018-08-30T01:40:25.893Z,20.56
2018-08-30T01:41:25.884Z,20.58
2018-08-30T01:42:25.629Z,20.56
2018-08-30T01:43:25.621Z,20.52
2018-08-30T01:44:25.876Z,20.5
2018-08-30T01:45:25.632Z,20.47
2018-08-30T01:46:25.892Z,20.59
2018-08-30T01:47:25.628Z,20.41
2018-08-30T01:48:25.625Z,20.58
2018-08-30T01:49:25.395Z,20.44
2018-08-30T01:50:25.714Z,20.43
2018-08-30T01:51:25.379Z,20.44
2018-08-30T01:52:25.372Z,20.4
2018-08-30T01:53:25.682Z,20.5
2018-08-30T01:54:25.895Z,20.48
2018-08-30T01:55:25.481Z,20.43
2018-08-30T01:56:25.896Z,20.52
2018-08-30T01:57:25.647Z,20.4
2018-08-30T01:58:25.637Z,20.48
2018-08-30T01:59:25.908Z,20.37
2018-08-30T02:00:25.710Z,20.44
2018-08-30T02:01:25.910Z,20.43
2018-08-30T02:02:25.644Z,20.44
2018-08-30T02:03:25.905Z,20.32
2018-08-30T02:04:25.911Z,20.44
2018-08-30T02:05:25.694Z,20.4
2018-08-30T02:06:25.704Z,20.34
2018-08-30T02:07:25.414Z,20.34
2018-08-30T02:08:25.664Z,20.36
2018-08-30T02:09:25.658Z,20.29
2018-08-30T02:10:25.447Z,20.31
2018-08-30T02:11:25.695Z,20.32
2018-08-30T02:12:25.917Z,20.24
2018-08-30T02:13:25.425Z,20.24
2018-08-30T02:14:25.686Z,20.25
2018-08-30T02:15:25.957Z,20.32
2018-08-30T02:16:25.687Z,20.31
2018-08-30T02:17:25.426Z,20.25
2018-08-30T02:18:25.924Z,20.13
2018-08-30T02:19:25.671Z,20.07
2018-08-30T02:20:25.787Z,20.06
2018-08-30T02:21:25.988Z,20.02
2018-08-30T02:22:25.939Z,19.99
2018-08-30T02:23:25.937Z,19.84
2018-08-30T02:24:25.414Z,19.89
2018-08-30T02:25:25.746Z,19.85
2018-08-30T02:26:25.928Z,19.86
2018-08-30T02:27:25.682Z,19.84
2018-08-30T02:28:25.922Z,19.82
2018-08-30T02:29:25.678Z,19.85
2018-08-30T02:30:25.729Z,19.81
2018-08-30T02:31:25.689Z,19.81
2018-08-30T02:32:25.936Z,19.77
2018-08-30T02:33:25.432Z,19.7
2018-08-30T02:34:25.682Z,19.74
2018-08-30T02:35:25.737Z,19.7
2018-08-30T02:36:25.691Z,19.47
2018-08-30T02:37:25.685Z,19.63
2018-08-30T02:38:25.694Z,19.49
2018-08-30T02:39:25.955Z,19.52
2018-08-30T02:40:25.458Z,19.49
2018-08-30T02:41:25.956Z,19.45
2018-08-30T02:42:26.305Z,19.47
2018-08-30T02:43:25.982Z,19.45
2018-08-30T02:44:25.464Z,19.45
2018-08-30T02:45:25.690Z,19.4
2018-08-30T02:46:25.950Z,19.37
2018-08-30T02:47:25.713Z,19.37
2018-08-30T02:48:25.944Z,19.37
2018-08-30T02:49:25.698Z,19.31
2018-08-30T02:50:25.727Z,19.33
2018-08-30T02:51:25.944Z,19.4
2018-08-30T02:52:25.949Z,19.41
2018-08-30T02:53:25.954Z,19.33
2018-08-30T02:54:25.694Z,19.44
2018-08-30T02:55:25.779Z,19.41
2018-08-30T02:56:25.951Z,19.47
2018-08-30T02:57:25.952Z,19.4
2018-08-30T02:58:25.951Z,19.41
2018-08-30T02:59:25.698Z,19.4
2018-08-30T03:00:25.740Z,19.49
2018-08-30T03:01:25.961Z,19.47
2018-08-30T03:02:25.966Z,19.49
2018-08-30T03:03:25.707Z,19.48
2018-08-30T03:04:25.462Z,19.41
2018-08-30T03:05:25.554Z,19.47
2018-08-30T03:06:25.953Z,19.48
2018-08-30T03:07:25.706Z,19.47
2018-08-30T03:08:25.977Z,19.47
2018-08-30T03:09:25.984Z,19.47
2018-08-30T03:10:26.010Z,19.48
2018-08-30T03:11:25.989Z,19.49
2018-08-30T03:12:25.708Z,19.41
2018-08-30T03:13:25.966Z,19.41
2018-08-30T03:14:25.711Z,19.31
2018-08-30T03:15:25.986Z,19.4
2018-08-30T03:16:25.977Z,19.33
2018-08-30T03:17:25.967Z,19.41
2018-08-30T03:18:25.964Z,19.29
2018-08-30T03:19:25.713Z,19.31
2018-08-30T03:20:26.021Z,19.36
2018-08-30T03:21:25.716Z,19.27
2018-08-30T03:22:25.974Z,19.24
2018-08-30T03:23:25.981Z,19.24
2018-08-30T03:24:25.972Z,19.26
2018-08-30T03:25:26.029Z,19.26
2018-08-30T03:26:25.972Z,19.18
2018-08-30T03:27:25.972Z,19.26
2018-08-30T03:28:25.719Z,19.29
2018-08-30T03:29:25.726Z,19.27
2018-08-30T03:30:26.644Z,19.26
2018-08-30T03:31:26.004Z,19.24
2018-08-30T03:32:26.793Z,19.29
2018-08-30T03:33:25.472Z,19.22
2018-08-30T03:34:25.469Z,19.22
2018-08-30T03:35:25.981Z,19.21
2018-08-30T03:36:25.734Z,19.27
2018-08-30T03:37:25.470Z,19.19
2018-08-30T03:38:25.724Z,19.29
2018-08-30T03:39:25.729Z,19.22
2018-08-30T03:40:26.084Z,19.22
2018-08-30T03:41:25.475Z,19.09
2018-08-30T03:42:25.729Z,19.16
2018-08-30T03:43:25.985Z,19.18
2018-08-30T03:44:26.005Z,19.12
2018-08-30T03:45:26.064Z,19.18
2018-08-30T03:46:25.769Z,19.19
2018-08-30T03:47:26.145Z,19.21
2018-08-30T03:48:25.992Z,19.22
2018-08-30T03:49:25.738Z,19.15
2018-08-30T03:50:25.788Z,19.14
2018-08-30T03:51:25.989Z,19.14
2018-08-30T03:52:25.737Z,19.12
2018-08-30T03:53:25.741Z,19.16
2018-08-30T03:54:25.990Z,19.19
2018-08-30T03:55:25.960Z,19.15
2018-08-30T03:56:25.738Z,19.15
2018-08-30T03:57:25.739Z,19.16
2018-08-30T03:58:25.996Z,19.15
2018-08-30T03:59:25.486Z,19.29
2018-08-30T04:00:26.009Z,19.19
2018-08-30T04:01:25.740Z,19.19
2018-08-30T04:02:26.006Z,19.18
2018-08-30T04:03:25.740Z,19.12
2018-08-30T04:04:26.040Z,19.16
2018-08-30T04:05:25.811Z,19.12
2018-08-30T04:06:26.003Z,19.16
2018-08-30T04:07:25.741Z,19.16
2018-08-30T04:08:26.003Z,19.14
2018-08-30T04:09:25.770Z,19.14
2018-08-30T04:10:25.814Z,19.11
2018-08-30T04:11:25.749Z,19.16
2018-08-30T04:12:25.499Z,19.12
2018-08-30T04:13:25.819Z,19.07
2018-08-30T04:14:26.016Z,19.15
2018-08-30T04:15:25.553Z,19.14
2018-08-30T04:16:25.753Z,19.21
2018-08-30T04:17:26.835Z,19.14
2018-08-30T04:18:25.758Z,19.07
2018-08-30T04:19:25.772Z,19.14
2018-08-30T04:20:26.100Z,19.15
2018-08-30T04:21:25.773Z,19.16
2018-08-30T04:22:26.018Z,19.18
2018-08-30T04:23:25.504Z,19.19
2018-08-30T04:24:25.763Z,19.09
2018-08-30T04:25:25.505Z,19.12
2018-08-30T04:26:26.019Z,19.12
2018-08-30T04:27:25.761Z,19.02
2018-08-30T04:28:25.768Z,19
2018-08-30T04:29:25.772Z,19
2018-08-30T04:30:26.029Z,19.02
2018-08-30T04:31:26.140Z,18.98
2018-08-30T04:32:26.566Z,19
2018-08-30T04:33:26.024Z,18.95
2018-08-30T04:34:26.022Z,19.04
2018-08-30T04:35:26.044Z,18.96
2018-08-30T04:36:25.527Z,18.93
2018-08-30T04:37:25.512Z,19
2018-08-30T04:38:25.790Z,18.93
2018-08-30T04:39:26.032Z,19.02
2018-08-30T04:40:25.799Z,18.93
2018-08-30T04:41:26.038Z,19
2018-08-30T04:42:26.376Z,18.96
2018-08-30T04:43:25.534Z,19.04
2018-08-30T04:44:25.777Z,18.93
2018-08-30T04:45:26.120Z,18.88
2018-08-30T04:46:26.051Z,18.95
2018-08-30T04:47:25.774Z,18.96
2018-08-30T04:48:26.035Z,18.81
2018-08-30T04:49:26.037Z,18.9
2018-08-30T04:50:26.228Z,18.93
2018-08-30T04:51:25.525Z,18.92
2018-08-30T04:52:25.782Z,18.88
2018-08-30T04:53:25.783Z,18.93
2018-08-30T04:54:26.034Z,18.95
2018-08-30T04:55:26.118Z,18.96
2018-08-30T04:56:28.037Z,18.96
2018-08-30T04:57:26.097Z,18.93
2018-08-30T04:58:25.795Z,19.02
2018-08-30T04:59:25.784Z,19.04
2018-08-30T05:00:25.828Z,19.09
2018-08-30T05:01:25.784Z,19.09
2018-08-30T05:02:25.787Z,19.08
2018-08-30T05:03:25.802Z,19.07
2018-08-30T05:04:26.053Z,19.12
2018-08-30T05:05:25.895Z,19.08
2018-08-30T05:06:25.791Z,19.11
2018-08-30T05:07:25.834Z,19.16
2018-08-30T05:08:26.053Z,19.08
2018-08-30T05:09:25.796Z,19.12
2018-08-30T05:10:26.045Z,19.12
2018-08-30T05:11:25.537Z,19.12
2018-08-30T05:12:25.797Z,19.18
2018-08-30T05:13:26.394Z,19.09
2018-08-30T05:14:25.817Z,19.12
2018-08-30T05:15:26.092Z,19.14
2018-08-30T05:16:26.183Z,19.19
2018-08-30T05:17:26.054Z,19.12
2018-08-30T05:18:25.798Z,19.11
2018-08-30T05:19:26.214Z,19.15
2018-08-30T05:20:26.083Z,19.16
2018-08-30T05:21:25.795Z,19.14
2018-08-30T05:22:26.075Z,19.18
2018-08-30T05:23:25.940Z,19.19
2018-08-30T05:24:25.799Z,19.11
2018-08-30T05:25:25.869Z,19.12
2018-08-30T05:26:25.818Z,19.19
2018-08-30T05:27:26.058Z,19.18
2018-08-30T05:28:25.552Z,19.15
2018-08-30T05:29:25.822Z,19.14
2018-08-30T05:30:25.801Z,19.14
2018-08-30T05:31:25.808Z,19.11
2018-08-30T05:32:25.825Z,19.12
2018-08-30T05:33:25.804Z,19.14
2018-08-30T05:34:25.813Z,19.15
2018-08-30T05:35:25.822Z,19.16
2018-08-30T05:36:26.087Z,19.27
2018-08-30T05:37:26.097Z,19.22
2018-08-30T05:38:26.068Z,19.19
2018-08-30T05:39:25.810Z,19.24
2018-08-30T05:40:25.587Z,19.26
2018-08-30T05:41:26.091Z,19.26
2018-08-30T05:42:26.084Z,19.27
2018-08-30T05:43:25.831Z,19.3
2018-08-30T05:44:25.819Z,19.34
2018-08-30T05:45:25.836Z,19.24
2018-08-30T05:46:25.571Z,19.3
2018-08-30T05:47:25.573Z,19.19
2018-08-30T05:48:26.382Z,19.15
2018-08-30T05:49:25.861Z,19.18
2018-08-30T05:50:25.823Z,19.19
2018-08-30T05:51:25.844Z,19.18
2018-08-30T05:52:26.095Z,19.15
2018-08-30T05:53:25.573Z,19.14
2018-08-30T05:54:25.844Z,19.12
2018-08-30T05:55:25.851Z,19
2018-08-30T05:56:26.095Z,18.98
2018-08-30T05:57:26.096Z,18.93
2018-08-30T05:58:26.092Z,18.84
2018-08-30T05:59:25.837Z,18.84
2018-08-30T06:00:25.902Z,18.83
2018-08-30T06:01:25.829Z,18.71
2018-08-30T06:02:25.852Z,18.71
2018-08-30T06:03:26.094Z,18.68
2018-08-30T06:04:25.579Z,18.66
2018-08-30T06:05:25.629Z,18.7
2018-08-30T06:06:26.108Z,18.7
2018-08-30T06:07:25.647Z,18.78
2018-08-30T06:08:27.696Z,18.77
2018-08-30T06:09:25.832Z,18.71
2018-08-30T06:10:26.126Z,18.7
2018-08-30T06:11:26.095Z,18.77
2018-08-30T06:12:25.839Z,18.78
2018-08-30T06:13:26.100Z,18.88
2018-08-30T06:14:26.104Z,18.89
2018-08-30T06:15:25.871Z,18.78
2018-08-30T06:16:26.102Z,18.8
2018-08-30T06:17:25.841Z,18.74
2018-08-30T06:18:25.589Z,18.73
2018-08-30T06:19:25.845Z,18.73
2018-08-30T06:20:26.168Z,18.77
2018-08-30T06:21:25.837Z,18.74
2018-08-30T06:22:25.591Z,18.78
2018-08-30T06:23:25.595Z,18.83
2018-08-30T06:24:25.581Z,18.78
2018-08-30T06:25:25.688Z,18.84
2018-08-30T06:26:26.102Z,18.92
2018-08-30T06:27:25.590Z,18.95
2018-08-30T06:28:25.848Z,19.08
2018-08-30T06:29:26.063Z,19.07
2018-08-30T06:30:26.148Z,19.08
2018-08-30T06:31:26.105Z,19.09
2018-08-30T06:32:26.105Z,19.08
2018-08-30T06:33:25.858Z,18.99
2018-08-30T06:34:25.889Z,19
2018-08-30T06:35:26.185Z,19.04
2018-08-30T06:36:26.125Z,19.02
2018-08-30T06:37:26.111Z,19.07
2018-08-30T06:38:26.111Z,19.16
2018-08-30T06:39:26.110Z,19.11
2018-08-30T06:40:25.688Z,19.14
2018-08-30T06:41:25.853Z,19.08
2018-08-30T06:42:25.851Z,19.15
2018-08-30T06:43:25.597Z,19.19
2018-08-30T06:44:26.116Z,19.19
2018-08-30T06:45:25.977Z,19.16
2018-08-30T06:46:25.612Z,19.12
2018-08-30T06:47:25.867Z,19.22
2018-08-30T06:48:26.180Z,19.19
2018-08-30T06:49:25.925Z,19.11
2018-08-30T06:50:25.672Z,19.19
2018-08-30T06:51:25.868Z,19.21
2018-08-30T06:52:25.865Z,19.16
2018-08-30T06:53:26.130Z,19.18
2018-08-30T06:54:25.867Z,19.14
2018-08-30T06:55:25.936Z,19.12
2018-08-30T06:56:26.053Z,19.16
2018-08-30T06:57:26.122Z,19.22
2018-08-30T06:58:25.946Z,19.11
2018-08-30T06:59:26.124Z,19.19
2018-08-30T07:00:25.876Z,19.08
2018-08-30T07:01:25.874Z,19.09
2018-08-30T07:02:25.869Z,19.02
2018-08-30T07:03:25.878Z,18.95
2018-08-30T07:04:26.294Z,18.9
2018-08-30T07:05:26.218Z,18.93
2018-08-30T07:06:26.122Z,18.89
2018-08-30T07:07:25.622Z,18.84
2018-08-30T07:08:25.879Z,18.83
2018-08-30T07:09:25.708Z,18.77
2018-08-30T07:10:25.709Z,18.68
2018-08-30T07:11:25.882Z,18.6
2018-08-30T07:12:25.877Z,18.49
2018-08-30T07:13:26.127Z,18.47
2018-08-30T07:14:25.935Z,18.44
2018-08-30T07:15:25.905Z,18.38
2018-08-30T07:16:25.881Z,18.41
2018-08-30T07:17:26.152Z,18.52
2018-08-30T07:18:29.131Z,18.59
2018-08-30T07:19:25.905Z,18.66
2018-08-30T07:20:26.217Z,18.7
2018-08-30T07:21:25.885Z,18.89
2018-08-30T07:22:25.879Z,18.81
2018-08-30T07:23:25.884Z,18.96
2018-08-30T07:24:26.538Z,19.07
2018-08-30T07:25:26.266Z,19.09
2018-08-30T07:26:25.890Z,19.16
2018-08-30T07:27:25.889Z,19.18
2018-08-30T07:28:25.921Z,19.21
2018-08-30T07:29:25.634Z,19.27
2018-08-30T07:30:25.975Z,19.24
2018-08-30T07:31:25.906Z,19.37
2018-08-30T07:32:26.154Z,19.41
2018-08-30T07:33:25.891Z,19.49
2018-08-30T07:34:25.767Z,19.58
2018-08-30T07:35:26.149Z,19.54
2018-08-30T07:36:26.160Z,19.64
2018-08-30T07:37:25.900Z,19.74
2018-08-30T07:38:26.163Z,19.74
2018-08-30T07:39:25.930Z,19.71
2018-08-30T07:40:25.929Z,19.76
2018-08-30T07:41:26.159Z,19.76
2018-08-30T07:42:25.948Z,19.85
2018-08-30T07:43:25.655Z,19.74
2018-08-30T07:44:26.346Z,19.74
2018-08-30T07:45:26.200Z,19.7
2018-08-30T07:46:25.654Z,19.82
2018-08-30T07:47:26.063Z,19.85
2018-08-30T07:48:26.173Z,19.92
2018-08-30T07:49:29.939Z,19.99
2018-08-30T07:50:26.031Z,20.06
2018-08-30T07:51:26.320Z,20.13
2018-08-30T07:52:25.931Z,20.26
2018-08-30T07:53:26.189Z,20.58
2018-08-30T07:54:26.355Z,20.82
2018-08-30T07:55:26.218Z,21.11
2018-08-30T07:56:26.187Z,21.17
2018-08-30T07:57:26.397Z,21.18
2018-08-30T07:58:25.939Z,21.15
2018-08-30T07:59:25.937Z,21.11
2018-08-30T08:00:25.987Z,21.03
2018-08-30T08:01:25.687Z,21.02
2018-08-30T08:02:25.688Z,21.07
2018-08-30T08:03:26.204Z,21.07
2018-08-30T08:04:25.940Z,20.97
2018-08-30T08:05:26.004Z,20.97
2018-08-30T08:06:25.965Z,20.72
2018-08-30T08:07:26.377Z,20.66
2018-08-30T08:08:26.220Z,20.58
2018-08-30T08:09:25.705Z,20.37
2018-08-30T08:10:26.303Z,20.32
2018-08-30T08:11:26.239Z,20.36
2018-08-30T08:12:25.973Z,20.37
2018-08-30T08:13:25.963Z,20.37
2018-08-30T08:14:26.224Z,20.39
2018-08-30T08:15:26.272Z,20.25
2018-08-30T08:16:25.985Z,20.28
2018-08-30T08:17:25.980Z,20.13
2018-08-30T08:18:26.264Z,20.04
2018-08-30T08:19:26.233Z,19.99
2018-08-30T08:20:26.069Z,19.95
2018-08-30T08:21:25.987Z,19.94
2018-08-30T08:22:26.238Z,20
2018-08-30T08:23:25.745Z,19.86
2018-08-30T08:24:26.247Z,19.91
2018-08-30T08:25:26.560Z,19.99
2018-08-30T08:26:25.738Z,19.95
2018-08-30T08:27:26.269Z,20.02
2018-08-30T08:28:25.991Z,20.07
2018-08-30T08:29:25.996Z,20.19
2018-08-30T08:30:25.806Z,20.16
2018-08-30T08:31:26.487Z,20.31
2018-08-30T08:32:26.013Z,20.32
2018-08-30T08:33:26.011Z,20.41
2018-08-30T08:34:26.017Z,20.51
2018-08-30T08:35:26.363Z,20.52
2018-08-30T08:36:26.008Z,20.67
2018-08-30T08:37:26.282Z,20.69
2018-08-30T08:38:26.000Z,20.69
2018-08-30T08:39:26.276Z,20.66
2018-08-30T08:40:26.050Z,20.69
2018-08-30T08:41:26.027Z,20.66
2018-08-30T08:42:26.282Z,20.67
2018-08-30T08:43:26.012Z,20.95
2018-08-30T08:44:26.279Z,20.87
2018-08-30T08:45:26.327Z,20.92
2018-08-30T08:46:26.282Z,20.93
2018-08-30T08:47:26.278Z,20.99
2018-08-30T08:48:26.297Z,20.96
2018-08-30T08:49:26.595Z,20.92
2018-08-30T08:50:26.300Z,21
2018-08-30T08:51:26.039Z,20.88
2018-08-30T08:52:26.039Z,20.93
2018-08-30T08:53:26.040Z,20.85
2018-08-30T08:54:26.310Z,20.93
2018-08-30T08:55:26.045Z,20.92
2018-08-30T08:56:26.055Z,20.85
2018-08-30T08:57:25.798Z,20.7
2018-08-30T08:58:26.056Z,20.77
2018-08-30T08:59:26.117Z,20.77
2018-08-30T09:00:26.386Z,20.85
2018-08-30T09:01:26.265Z,20.82
2018-08-30T09:02:26.317Z,20.81
2018-08-30T09:03:26.149Z,20.85
2018-08-30T09:04:26.409Z,20.99
2018-08-30T09:05:26.364Z,21.02
2018-08-30T09:06:26.349Z,21.2
2018-08-30T09:07:26.486Z,21.24
2018-08-30T09:08:26.347Z,21.35
2018-08-30T09:09:25.906Z,21.4
2018-08-30T09:10:26.387Z,21.36
2018-08-30T09:11:26.349Z,21.48
2018-08-30T09:12:26.352Z,21.45
2018-08-30T09:13:26.112Z,21.45
2018-08-30T09:14:26.526Z,21.45
2018-08-30T09:15:26.117Z,21.5
2018-08-30T09:16:26.151Z,21.46
2018-08-30T09:17:25.843Z,21.43
2018-08-30T09:18:26.632Z,21.51
2018-08-30T09:19:26.371Z,21.61
2018-08-30T09:20:28.576Z,21.54
2018-08-30T09:21:25.874Z,21.54
2018-08-30T09:22:26.126Z,21.57
2018-08-30T09:23:26.112Z,21.51
2018-08-30T09:24:26.113Z,21.43
2018-08-30T09:25:26.432Z,21.54
2018-08-30T09:26:26.137Z,21.52
2018-08-30T09:27:26.123Z,21.43
2018-08-30T09:28:26.139Z,21.35
2018-08-30T09:29:25.874Z,21.36
2018-08-30T09:30:25.939Z,21.43
2018-08-30T09:31:26.411Z,21.39
2018-08-30T09:32:26.146Z,21.43
2018-08-30T09:33:26.396Z,21.55
2018-08-30T09:34:26.161Z,21.62
2018-08-30T09:35:26.002Z,21.66
2018-08-30T09:36:26.400Z,21.7
2018-08-30T09:37:26.227Z,21.77
2018-08-30T09:38:26.162Z,21.8
2018-08-30T09:39:26.472Z,21.96
2018-08-30T09:40:26.240Z,21.93
2018-08-30T09:41:26.169Z,21.98
2018-08-30T09:42:26.420Z,22.02
2018-08-30T09:43:26.424Z,22.08
2018-08-30T09:44:26.177Z,22.28
2018-08-30T09:45:26.225Z,22.45
2018-08-30T09:46:26.189Z,22.59
2018-08-30T09:47:26.173Z,22.66
2018-08-30T09:48:26.438Z,22.66
2018-08-30T09:49:26.658Z,22.53
2018-08-30T09:50:26.211Z,22.38
2018-08-30T09:51:26.192Z,22.41
2018-08-30T09:52:26.464Z,22.68
2018-08-30T09:53:26.450Z,22.84
2018-08-30T09:54:25.947Z,22.96
2018-08-30T09:55:26.000Z,23.1
2018-08-30T09:56:26.472Z,22.91
2018-08-30T09:57:26.595Z,22.94
2018-08-30T09:58:26.231Z,22.85
2018-08-30T09:59:26.266Z,22.68
2018-08-30T10:00:26.340Z,22.47
2018-08-30T10:01:26.242Z,22.39
2018-08-30T10:02:26.231Z,22.26
2018-08-30T10:03:26.226Z,22.32
2018-08-30T10:04:25.990Z,22.22
2018-08-30T10:05:26.328Z,22.25
2018-08-30T10:06:26.494Z,22.11
2018-08-30T10:07:26.261Z,22.04
2018-08-30T10:08:26.526Z,21.95
2018-08-30T10:09:26.524Z,21.89
2018-08-30T10:10:26.534Z,22.02
2018-08-30T10:11:26.514Z,21.96
2018-08-30T10:12:26.517Z,21.98
2018-08-30T10:13:26.525Z,22.07
2018-08-30T10:14:26.558Z,21.93
2018-08-30T10:15:26.362Z,21.79
2018-08-30T10:16:26.280Z,21.76
2018-08-30T10:17:26.044Z,21.82
2018-08-30T10:18:26.026Z,21.96
2018-08-30T10:19:26.292Z,22.15
2018-08-30T10:20:31.089Z,22.35
2018-08-30T10:21:26.381Z,22.44
2018-08-30T10:22:26.550Z,22.53
2018-08-30T10:23:26.308Z,22.54
2018-08-30T10:24:26.306Z,22.59
2018-08-30T10:25:26.533Z,22.54
2018-08-30T10:26:26.560Z,22.43
2018-08-30T10:27:26.322Z,22.35
2018-08-30T10:28:26.072Z,22.36
2018-08-30T10:29:26.311Z,22.26
2018-08-30T10:30:26.350Z,22.22
2018-08-30T10:31:26.719Z,22.14
2018-08-30T10:32:26.068Z,22.04
2018-08-30T10:33:26.585Z,22.04
2018-08-30T10:34:26.335Z,21.89
2018-08-30T10:35:26.170Z,21.89
2018-08-30T10:36:26.330Z,21.91
2018-08-30T10:37:26.646Z,21.79
2018-08-30T10:38:26.594Z,21.72
2018-08-30T10:39:26.341Z,21.55
2018-08-30T10:40:26.395Z,21.55
2018-08-30T10:41:26.344Z,21.6
2018-08-30T10:42:26.345Z,21.76
2018-08-30T10:43:26.096Z,21.82
2018-08-30T10:44:26.615Z,21.85
2018-08-30T10:45:26.678Z,21.8
2018-08-30T10:46:26.392Z,21.67
2018-08-30T10:47:26.358Z,21.73
2018-08-30T10:48:26.392Z,21.69
2018-08-30T10:49:26.918Z,21.72
2018-08-30T10:50:26.654Z,21.67
2018-08-30T10:51:26.114Z,21.66
2018-08-30T10:52:26.373Z,21.6
2018-08-30T10:53:26.397Z,21.48
2018-08-30T10:54:26.394Z,21.5
2018-08-30T10:55:26.418Z,21.62
2018-08-30T10:56:26.632Z,21.66
2018-08-30T10:57:26.667Z,21.73
2018-08-30T10:58:26.672Z,21.85
2018-08-30T10:59:26.400Z,21.93
2018-08-30T11:00:26.423Z,21.92
2018-08-30T11:01:26.420Z,21.95
2018-08-30T11:02:26.396Z,21.8
2018-08-30T11:03:26.662Z,21.75
2018-08-30T11:04:26.600Z,21.72
2018-08-30T11:05:26.745Z,21.57
2018-08-30T11:06:26.673Z,21.51
2018-08-30T11:07:26.424Z,21.43
2018-08-30T11:08:26.678Z,21.54
2018-08-30T11:09:26.680Z,21.61
2018-08-30T11:10:26.509Z,21.57
2018-08-30T11:11:26.679Z,21.75
2018-08-30T11:12:26.683Z,21.85
2018-08-30T11:13:26.600Z,21.89
2018-08-30T11:14:26.433Z,21.91
2018-08-30T11:15:26.547Z,22.11
2018-08-30T11:16:26.700Z,22.36
2018-08-30T11:17:26.446Z,22.59
2018-08-30T11:18:26.704Z,22.62
2018-08-30T11:19:26.568Z,22.65
2018-08-30T11:20:26.704Z,22.65
2018-08-30T11:21:26.465Z,22.6
2018-08-30T11:22:26.718Z,22.54
2018-08-30T11:23:26.718Z,22.45
2018-08-30T11:24:26.476Z,22.38
2018-08-30T11:25:26.471Z,22.32
2018-08-30T11:26:26.221Z,22.26
2018-08-30T11:27:26.736Z,22.39
2018-08-30T11:28:26.731Z,22.44
2018-08-30T11:29:26.479Z,22.55
2018-08-30T11:30:26.778Z,22.59
2018-08-30T11:31:26.759Z,22.69
2018-08-30T11:32:26.761Z,22.73
2018-08-30T11:33:26.747Z,22.75
2018-08-30T11:34:26.505Z,22.87
2018-08-30T11:35:26.812Z,22.99
2018-08-30T11:36:26.768Z,23.1
2018-08-30T11:37:26.534Z,23.1
2018-08-30T11:38:26.267Z,22.98
2018-08-30T11:39:26.767Z,23.17
2018-08-30T11:40:26.526Z,23.1
2018-08-30T11:41:27.139Z,23.31
2018-08-30T11:42:26.351Z,23.34
2018-08-30T11:43:26.768Z,23.37
2018-08-30T11:44:26.785Z,23.41
2018-08-30T11:45:26.529Z,23.34
2018-08-30T11:46:26.534Z,23.43
2018-08-30T11:47:26.580Z,23.44
2018-08-30T11:48:26.828Z,23.5
2018-08-30T11:49:26.610Z,23.5
2018-08-30T11:50:26.643Z,23.28
2018-08-30T11:51:28.475Z,23.31
2018-08-30T11:52:27.163Z,23.28
2018-08-30T11:53:26.614Z,23.46
2018-08-30T11:54:26.691Z,23.39
2018-08-30T11:55:26.582Z,23.39
2018-08-30T11:56:26.324Z,23.44
2018-08-30T11:57:26.324Z,23.47
2018-08-30T11:58:26.620Z,23.58
2018-08-30T11:59:26.335Z,23.61
2018-08-30T12:00:26.590Z,23.59
2018-08-30T12:01:26.845Z,23.59
2018-08-30T12:02:26.601Z,23.73
2018-08-30T12:03:26.332Z,23.63
2018-08-30T12:04:26.347Z,23.81
2018-08-30T12:05:26.670Z,23.92
2018-08-30T12:06:26.608Z,23.87
2018-08-30T12:07:26.892Z,23.71
2018-08-30T12:08:27.128Z,23.58
2018-08-30T12:09:26.636Z,23.55
2018-08-30T12:10:27.508Z,23.55
2018-08-30T12:11:26.382Z,23.37
2018-08-30T12:12:26.622Z,23.13
2018-08-30T12:13:26.640Z,22.83
2018-08-30T12:14:26.397Z,22.83
2018-08-30T12:15:26.901Z,22.83
2018-08-30T12:16:26.644Z,22.76
2018-08-30T12:17:26.399Z,22.84
2018-08-30T12:18:26.906Z,22.9
2018-08-30T12:19:26.655Z,22.88
2018-08-30T12:20:26.828Z,22.98
2018-08-30T12:21:26.900Z,23.09
2018-08-30T12:22:26.654Z,23.15
2018-08-30T12:23:26.655Z,23.17
2018-08-30T12:24:26.661Z,23.28
2018-08-30T12:25:26.741Z,23.34
2018-08-30T12:26:26.949Z,23.25
2018-08-30T12:27:26.959Z,23.08
2018-08-30T12:28:27.291Z,22.99
2018-08-30T12:29:27.044Z,22.96
2018-08-30T12:30:27.105Z,22.91
2018-08-30T12:31:27.167Z,22.88
2018-08-30T12:32:26.895Z,22.76
2018-08-30T12:33:26.910Z,22.65
2018-08-30T12:34:26.850Z,22.55
2018-08-30T12:35:27.501Z,22.45
2018-08-30T12:36:27.046Z,22.45
2018-08-30T12:37:27.042Z,22.33
2018-08-30T12:38:26.856Z,22.45
2018-08-30T12:39:26.559Z,22.41
2018-08-30T12:40:27.109Z,22.55
2018-08-30T12:41:26.786Z,22.65
2018-08-30T12:42:27.198Z,22.66
2018-08-30T12:43:27.243Z,22.73
2018-08-30T12:44:26.854Z,22.68
2018-08-30T12:45:27.139Z,22.62
2018-08-30T12:46:26.980Z,22.51
2018-08-30T12:47:27.029Z,22.43
2018-08-30T12:48:27.042Z,22.3
2018-08-30T12:49:26.764Z,22.26
2018-08-30T12:50:27.672Z,22.22
2018-08-30T12:51:28.163Z,22.3
2018-08-30T12:52:26.601Z,22.28
2018-08-30T12:53:27.166Z,22.28
2018-08-30T12:54:27.596Z,22.32
2018-08-30T12:55:27.258Z,22.32
2018-08-30T12:56:27.390Z,22.33